createdAt,value
2018-07-08T00:00:03.834Z,64.43
2018-07-08T00:00:44.412Z,64.4
2018-07-08T00:01:24.959Z,64.59
2018-07-08T00:02:05.479Z,64.79
2018-07-08T00:02:46.001Z,64.79
2018-07-08T00:03:26.516Z,65.47
2018-07-08T00:04:07.040Z,65.3
2018-07-08T00:04:47.555Z,65.59
2018-07-08T00:05:28.073Z,65.79
2018-07-08T00:06:08.601Z,65.5
2018-07-08T00:06:49.118Z,65.5
2018-07-08T00:07:29.663Z,65.3
2018-07-08T00:08:10.184Z,65.59
2018-07-08T00:08:50.708Z,65.5
2018-07-08T00:09:31.232Z,65.3
2018-07-08T00:10:11.752Z,65.69
2018-07-08T00:10:52.280Z,65.69
2018-07-08T00:11:32.797Z,65.69
2018-07-08T00:12:13.315Z,65.59
2018-07-08T00:12:53.863Z,65.59
2018-07-08T00:13:35.120Z,65.79
2018-07-08T00:14:15.635Z,65.59
2018-07-08T00:14:56.180Z,65.4
2018-07-08T00:15:36.718Z,66.24
2018-07-08T00:16:17.274Z,65.69
2018-07-08T00:16:57.788Z,65.88
2018-07-08T00:17:38.315Z,66.27
2018-07-08T00:18:18.835Z,66.05
2018-07-08T00:18:59.375Z,66.75
2018-07-08T00:19:39.897Z,66.75
2018-07-08T00:20:20.421Z,65.98
2018-07-08T00:21:00.946Z,65.88
2018-07-08T00:21:41.487Z,65.88
2018-07-08T00:22:22.016Z,65.88
2018-07-08T00:23:02.537Z,65.88
2018-07-08T00:23:43.081Z,66.08
2018-07-08T00:24:23.599Z,66.75
2018-07-08T00:25:04.131Z,67.14
2018-07-08T00:25:44.645Z,67.24
2018-07-08T00:26:25.177Z,67.01
2018-07-08T00:27:05.710Z,66.82
2018-07-08T00:27:46.233Z,67.01
2018-07-08T00:28:26.745Z,67.4
2018-07-08T00:29:07.325Z,67.88
2018-07-08T00:29:47.844Z,68.08
2018-07-08T00:30:28.364Z,68.37
2018-07-08T00:31:08.903Z,68.17
2018-07-08T00:31:49.419Z,68.08
2018-07-08T00:32:29.967Z,68.17
2018-07-08T00:33:10.484Z,67.79
2018-07-08T00:33:51.017Z,68.17
2018-07-08T00:34:31.528Z,68.17
2018-07-08T00:35:12.063Z,68.08
2018-07-08T00:35:52.599Z,68.17
2018-07-08T00:36:33.139Z,68.3
2018-07-08T00:37:13.709Z,67.33
2018-07-08T00:37:54.227Z,67.53
2018-07-08T00:38:34.753Z,67.24
2018-07-08T00:39:15.281Z,67.11
2018-07-08T00:39:55.940Z,68.27
2018-07-08T00:40:36.332Z,67.98
2018-07-08T00:41:16.863Z,68.08
2018-07-08T00:41:57.376Z,67.79
2018-07-08T00:42:37.945Z,67.49
2018-07-08T00:43:18.461Z,67.4
2018-07-08T00:43:58.982Z,67.49
2018-07-08T00:44:39.501Z,67.49
2018-07-08T00:45:20.027Z,67.69
2018-07-08T00:46:00.545Z,66.91
2018-07-08T00:46:41.072Z,65.47
2018-07-08T00:47:21.596Z,65.17
2018-07-08T00:48:02.126Z,64.79
2018-07-08T00:48:42.646Z,65.85
2018-07-08T00:49:23.173Z,66.14
2018-07-08T00:50:03.704Z,66.82
2018-07-08T00:50:44.222Z,67.11
2018-07-08T00:51:24.746Z,67.88
2018-07-08T00:52:05.277Z,68.27
2018-07-08T00:52:45.815Z,68.17
2018-07-08T00:53:26.347Z,67.4
2018-07-08T00:54:06.874Z,67.21
2018-07-08T00:54:47.404Z,66.91
2018-07-08T00:55:27.936Z,65.75
2018-07-08T00:56:08.466Z,66.05
2018-07-08T00:56:48.989Z,64.79
2018-07-08T00:57:29.507Z,63.53
2018-07-08T00:58:10.044Z,63.92
2018-07-08T00:58:50.572Z,63.53
2018-07-08T00:59:31.103Z,63.43
2018-07-08T01:00:11.619Z,64.11
2018-07-08T01:00:52.137Z,64.79
2018-07-08T01:01:32.685Z,64.89
2018-07-08T01:02:13.238Z,64.89
2018-07-08T01:02:53.779Z,63.53
2018-07-08T01:03:34.300Z,63.14
2018-07-08T01:04:15.796Z,63.24
2018-07-08T01:04:56.336Z,62.66
2018-07-08T01:05:36.880Z,63.14
2018-07-08T01:06:17.402Z,62.95
2018-07-08T01:06:57.929Z,63.24
2018-07-08T01:07:38.466Z,63.82
2018-07-08T01:08:19.000Z,64.31
2018-07-08T01:08:59.531Z,64.59
2018-07-08T01:09:40.057Z,65.37
2018-07-08T01:10:20.585Z,64.79
2018-07-08T01:11:01.123Z,64.5
2018-07-08T01:11:41.646Z,64.21
2018-07-08T01:12:22.178Z,64.79
2018-07-08T01:13:02.707Z,64.59
2018-07-08T01:13:43.216Z,64.79
2018-07-08T01:14:23.726Z,65.85
2018-07-08T01:15:04.250Z,64.98
2018-07-08T01:15:44.773Z,65.56
2018-07-08T01:16:25.294Z,65.37
2018-07-08T01:17:05.832Z,65.47
2018-07-08T01:17:46.350Z,65.66
2018-07-08T01:18:26.877Z,65.17
2018-07-08T01:19:07.394Z,65.08
2018-07-08T01:19:47.915Z,64.79
2018-07-08T01:20:28.438Z,65.47
2018-07-08T01:21:08.957Z,65.56
2018-07-08T01:21:49.472Z,65.85
2018-07-08T01:22:30.555Z,65.75
2018-07-08T01:23:11.107Z,65.66
2018-07-08T01:23:51.628Z,66.53
2018-07-08T01:24:32.139Z,66.63
2018-07-08T01:25:12.670Z,66.82
2018-07-08T01:25:53.194Z,66.82
2018-07-08T01:26:33.720Z,66.82
2018-07-08T01:27:14.241Z,66.63
2018-07-08T01:27:54.768Z,64.4
2018-07-08T01:28:35.300Z,64.21
2018-07-08T01:29:15.811Z,64.62
2018-07-08T01:29:56.331Z,65.2
2018-07-08T01:30:36.853Z,65.75
2018-07-08T01:31:17.380Z,65.79
2018-07-08T01:31:57.893Z,65.85
2018-07-08T01:32:38.419Z,64.79
2018-07-08T01:33:18.922Z,64.89
2018-07-08T01:33:59.447Z,64.31
2018-07-08T01:34:39.965Z,63.95
2018-07-08T01:35:20.490Z,63.14
2018-07-08T01:36:01.016Z,64.11
2018-07-08T01:36:41.532Z,64.59
2018-07-08T01:37:22.058Z,64.4
2018-07-08T01:38:02.603Z,65.56
2018-07-08T01:38:43.135Z,65.66
2018-07-08T01:39:23.661Z,65.56
2018-07-08T01:40:04.280Z,65.56
2018-07-08T01:40:44.787Z,65.66
2018-07-08T01:41:25.296Z,65.56
2018-07-08T01:42:05.824Z,65.66
2018-07-08T01:42:46.348Z,65.85
2018-07-08T01:43:26.873Z,66.14
2018-07-08T01:44:07.386Z,65.75
2018-07-08T01:44:47.912Z,65.56
2018-07-08T01:45:28.459Z,65.75
2018-07-08T01:46:08.988Z,65.92
2018-07-08T01:46:49.520Z,66.5
2018-07-08T01:47:30.045Z,66.88
2018-07-08T01:48:10.550Z,66.88
2018-07-08T01:48:51.073Z,67.17
2018-07-08T01:49:31.581Z,67.17
2018-07-08T01:50:12.107Z,67.17
2018-07-08T01:50:52.633Z,67.08
2018-07-08T01:51:33.161Z,66.59
2018-07-08T01:52:13.690Z,67.27
2018-07-08T01:52:54.243Z,67.08
2018-07-08T01:53:34.759Z,67.46
2018-07-08T01:54:15.279Z,67.56
2018-07-08T01:54:55.818Z,67.66
2018-07-08T01:55:36.333Z,67.17
2018-07-08T01:56:16.867Z,67.3
2018-07-08T01:56:57.379Z,68.04
2018-07-08T01:57:37.891Z,68.52
2018-07-08T01:58:18.426Z,68.33
2018-07-08T01:58:58.949Z,68.08
2018-07-08T01:59:39.505Z,67.98
2018-07-08T02:00:19.993Z,68.17
2018-07-08T02:01:00.522Z,68.14
2018-07-08T02:01:41.056Z,68.46
2018-07-08T02:02:21.584Z,68.37
2018-07-08T02:03:02.101Z,68.37
2018-07-08T02:03:42.621Z,68.27
2018-07-08T02:04:23.153Z,68.17
2018-07-08T02:05:03.671Z,68.33
2018-07-08T02:05:44.190Z,68.33
2018-07-08T02:06:24.729Z,68.72
2018-07-08T02:07:05.296Z,69.1
2018-07-08T02:07:45.779Z,68.91
2018-07-08T02:08:26.319Z,68.91
2018-07-08T02:09:06.839Z,68.82
2018-07-08T02:09:47.355Z,69.3
2018-07-08T02:10:27.875Z,69.84
2018-07-08T02:11:08.394Z,70.23
2018-07-08T02:11:48.913Z,70.04
2018-07-08T02:12:29.437Z,69.84
2018-07-08T02:13:09.948Z,70.52
2018-07-08T02:13:50.486Z,70.14
2018-07-08T02:14:30.999Z,70.56
2018-07-08T02:15:11.533Z,70.52
2018-07-08T02:15:52.047Z,70.42
2018-07-08T02:16:32.578Z,71
2018-07-08T02:17:13.083Z,70.72
2018-07-08T02:17:53.597Z,70.42
2018-07-08T02:18:34.137Z,71.3
2018-07-08T02:19:14.671Z,71.48
2018-07-08T02:19:55.186Z,71.39
2018-07-08T02:20:35.703Z,71.58
2018-07-08T02:21:16.220Z,71.39
2018-07-08T02:21:56.743Z,71.3
2018-07-08T02:22:37.260Z,71.68
2018-07-08T02:23:17.780Z,71.88
2018-07-08T02:23:58.311Z,71.88
2018-07-08T02:24:38.831Z,72.36
2018-07-08T02:25:19.375Z,71.68
2018-07-08T02:25:59.903Z,72.06
2018-07-08T02:26:40.417Z,71.97
2018-07-08T02:27:20.944Z,73.03
2018-07-08T02:28:01.469Z,73.03
2018-07-08T02:28:41.995Z,73.03
2018-07-08T02:29:22.518Z,73.32
2018-07-08T02:30:03.049Z,72.64
2018-07-08T02:30:43.571Z,72.84
2018-07-08T02:31:25.090Z,73.03
2018-07-08T02:32:05.617Z,72.84
2018-07-08T02:32:46.170Z,73.22
2018-07-08T02:33:26.699Z,73.42
2018-07-08T02:34:07.224Z,73.52
2018-07-08T02:34:47.746Z,73.9
2018-07-08T02:35:28.261Z,74.38
2018-07-08T02:36:08.781Z,73.8
2018-07-08T02:36:49.308Z,73.71
2018-07-08T02:37:29.846Z,73.8
2018-07-08T02:38:10.367Z,74.19
2018-07-08T02:38:50.894Z,74.58
2018-07-08T02:39:31.425Z,74.58
2018-07-08T02:40:11.961Z,74.19
2018-07-08T02:40:52.479Z,74.19
2018-07-08T02:41:32.996Z,74.19
2018-07-08T02:42:13.516Z,74.19
2018-07-08T02:42:54.052Z,74.1
2018-07-08T02:43:34.573Z,73.9
2018-07-08T02:44:15.101Z,74.1
2018-07-08T02:44:55.622Z,74.19
2018-07-08T02:45:36.159Z,73.52
2018-07-08T02:46:16.675Z,73.9
2018-07-08T02:46:57.197Z,74.1
2018-07-08T02:47:37.709Z,74.1
2018-07-08T02:48:18.234Z,74.68
2018-07-08T02:48:58.765Z,74
2018-07-08T02:49:39.293Z,74.29
2018-07-08T02:50:19.822Z,74.19
2018-07-08T02:51:01.200Z,74.19
2018-07-08T02:51:41.711Z,74.1
2018-07-08T02:52:22.230Z,74.1
2018-07-08T02:53:02.745Z,73.9
2018-07-08T02:53:43.279Z,74.1
2018-07-08T02:54:23.805Z,73.71
2018-07-08T02:55:04.325Z,73.32
2018-07-08T02:55:44.841Z,73.52
2018-07-08T02:56:25.364Z,73.13
2018-07-08T02:57:05.906Z,72.94
2018-07-08T02:57:46.422Z,73.52
2018-07-08T02:58:26.969Z,72.45
2018-07-08T02:59:07.559Z,69.65
2018-07-08T02:59:48.088Z,69.74
2018-07-08T03:00:28.618Z,68.78
2018-07-08T03:01:09.145Z,66.85
2018-07-08T03:01:49.664Z,66.56
2018-07-08T03:02:30.198Z,65.59
2018-07-08T03:03:10.785Z,65.88
2018-07-08T03:03:51.305Z,65.5
2018-07-08T03:04:31.835Z,64.82
2018-07-08T03:05:12.343Z,65.11
2018-07-08T03:05:52.877Z,65.11
2018-07-08T03:06:33.390Z,64.72
2018-07-08T03:07:13.917Z,64.82
2018-07-08T03:07:54.439Z,65.88
2018-07-08T03:08:34.961Z,67.52
2018-07-08T03:09:15.475Z,68.59
2018-07-08T03:09:55.995Z,68.88
2018-07-08T03:10:36.522Z,69.17
2018-07-08T03:11:17.036Z,69.07
2018-07-08T03:11:57.585Z,68.88
2018-07-08T03:12:38.114Z,68.68
2018-07-08T03:13:18.635Z,68.49
2018-07-08T03:13:59.143Z,68.68
2018-07-08T03:14:39.665Z,68.88
2018-07-08T03:15:20.189Z,68.78
2018-07-08T03:16:00.709Z,68.59
2018-07-08T03:16:41.260Z,68.78
2018-07-08T03:17:21.769Z,68.49
2018-07-08T03:18:02.306Z,69.26
2018-07-08T03:18:42.837Z,68.88
2018-07-08T03:19:23.350Z,68.59
2018-07-08T03:20:03.871Z,68.88
2018-07-08T03:20:44.399Z,68.2
2018-07-08T03:21:24.920Z,68.1
2018-07-08T03:22:05.453Z,67.91
2018-07-08T03:22:45.981Z,68.2
2018-07-08T03:23:26.502Z,68.3
2018-07-08T03:24:07.023Z,68.68
2018-07-08T03:24:47.544Z,68.59
2018-07-08T03:25:28.066Z,68.78
2018-07-08T03:26:08.599Z,68.68
2018-07-08T03:26:49.117Z,68.78
2018-07-08T03:27:29.672Z,68.4
2018-07-08T03:28:10.202Z,68.68
2018-07-08T03:28:50.731Z,68.3
2018-07-08T03:29:31.242Z,68.26
2018-07-08T03:30:11.769Z,68.36
2018-07-08T03:30:52.319Z,68.07
2018-07-08T03:31:32.826Z,68.1
2018-07-08T03:32:13.337Z,68.1
2018-07-08T03:32:53.869Z,67.91
2018-07-08T03:33:34.453Z,67.69
2018-07-08T03:34:14.917Z,68.01
2018-07-08T03:34:55.447Z,68.01
2018-07-08T03:35:35.969Z,68.01
2018-07-08T03:36:16.508Z,68.3
2018-07-08T03:36:57.027Z,68.68
2018-07-08T03:37:37.545Z,68.01
2018-07-08T03:38:18.071Z,68.4
2018-07-08T03:38:58.592Z,68.49
2018-07-08T03:39:39.107Z,68.49
2018-07-08T03:40:19.792Z,68.59
2018-07-08T03:41:00.308Z,68.55
2018-07-08T03:41:40.829Z,68.68
2018-07-08T03:42:21.345Z,68.68
2018-07-08T03:43:01.870Z,69.36
2018-07-08T03:43:42.400Z,69.36
2018-07-08T03:44:22.917Z,69.62
2018-07-08T03:45:03.443Z,69.71
2018-07-08T03:45:44.625Z,69.84
2018-07-08T03:46:25.150Z,69.94
2018-07-08T03:47:05.664Z,70.04
2018-07-08T03:47:46.187Z,70.04
2018-07-08T03:48:26.702Z,69.94
2018-07-08T03:49:07.231Z,70
2018-07-08T03:49:47.752Z,70.58
2018-07-08T03:50:29.016Z,70.87
2018-07-08T03:51:09.536Z,71.58
2018-07-08T03:51:50.040Z,71.06
2018-07-08T03:52:30.565Z,71.64
2018-07-08T03:53:11.154Z,71.94
2018-07-08T03:53:51.684Z,72.22
2018-07-08T03:54:32.197Z,72.26
2018-07-08T03:55:12.706Z,72.16
2018-07-08T03:55:53.229Z,71.88
2018-07-08T03:56:33.772Z,72.32
2018-07-08T03:57:14.309Z,72.8
2018-07-08T03:57:54.829Z,72.8
2018-07-08T03:58:35.354Z,71.68
2018-07-08T03:59:15.882Z,72.71
2018-07-08T03:59:56.414Z,72.32
2018-07-08T04:00:36.929Z,73.09
2018-07-08T04:01:17.446Z,72.8
2018-07-08T04:01:57.960Z,72.9
2018-07-08T04:02:38.638Z,72.84
2018-07-08T04:03:19.163Z,72.94
2018-07-08T04:03:59.682Z,72.94
2018-07-08T04:04:40.225Z,72.52
2018-07-08T04:05:20.740Z,73.03
2018-07-08T04:06:01.286Z,72.64
2018-07-08T04:06:41.781Z,72.74
2018-07-08T04:07:22.305Z,73.03
2018-07-08T04:08:02.829Z,73.42
2018-07-08T04:08:43.362Z,73.03
2018-07-08T04:09:23.867Z,73.32
2018-07-08T04:10:04.392Z,73.22
2018-07-08T04:10:44.923Z,73.03
2018-07-08T04:11:25.442Z,73.32
2018-07-08T04:12:05.967Z,73.22
2018-07-08T04:12:46.496Z,73.32
2018-07-08T04:13:27.025Z,73.71
2018-07-08T04:14:07.559Z,73.22
2018-07-08T04:14:48.094Z,73.61
2018-07-08T04:15:28.603Z,73.32
2018-07-08T04:16:09.127Z,73.61
2018-07-08T04:16:49.659Z,73.52
2018-07-08T04:17:30.173Z,73.42
2018-07-08T04:18:10.692Z,73.22
2018-07-08T04:18:51.206Z,72.94
2018-07-08T04:19:31.737Z,72.36
2018-07-08T04:20:12.262Z,72.06
2018-07-08T04:20:52.789Z,72.06
2018-07-08T04:21:33.307Z,71.3
2018-07-08T04:22:13.829Z,71.39
2018-07-08T04:22:54.350Z,71.62
2018-07-08T04:23:34.879Z,71.48
2018-07-08T04:24:15.402Z,70.81
2018-07-08T04:24:55.923Z,68.3
2018-07-08T04:25:36.565Z,67.91
2018-07-08T04:26:17.082Z,68.33
2018-07-08T04:26:57.606Z,67.27
2018-07-08T04:27:38.125Z,66.27
2018-07-08T04:28:18.641Z,66.75
2018-07-08T04:28:59.175Z,66.17
2018-07-08T04:29:39.701Z,65.88
2018-07-08T04:30:20.232Z,65.78
2018-07-08T04:31:00.766Z,66.56
2018-07-08T04:31:41.308Z,66.98
2018-07-08T04:32:21.836Z,66.2
2018-07-08T04:33:02.380Z,65.92
2018-07-08T04:33:42.908Z,65.82
2018-07-08T04:34:23.440Z,65.63
2018-07-08T04:35:03.987Z,65.53
2018-07-08T04:35:44.501Z,65.63
2018-07-08T04:36:25.023Z,66.78
2018-07-08T04:37:05.554Z,66.59
2018-07-08T04:37:46.077Z,65.82
2018-07-08T04:38:26.597Z,65.72
2018-07-08T04:39:07.127Z,63.98
2018-07-08T04:39:47.658Z,63.79
2018-07-08T04:40:28.184Z,63.73
2018-07-08T04:41:08.718Z,63.14
2018-07-08T04:41:49.235Z,63.08
2018-07-08T04:42:29.759Z,62.98
2018-07-08T04:43:10.286Z,62.14
2018-07-08T04:43:50.817Z,60.82
2018-07-08T04:44:31.337Z,60.94
2018-07-08T04:45:11.877Z,59.71
2018-07-08T04:45:52.388Z,57.15
2018-07-08T04:46:32.916Z,55.27
2018-07-08T04:47:13.442Z,54.2
2018-07-08T04:47:53.976Z,55.11
2018-07-08T04:48:34.508Z,55.96
2018-07-08T04:49:15.074Z,57.87
2018-07-08T04:49:55.535Z,58.52
2018-07-08T04:50:36.054Z,58.49
2018-07-08T04:51:16.595Z,58.88
2018-07-08T04:51:57.115Z,59.36
2018-07-08T04:52:37.649Z,59.46
2018-07-08T04:53:18.178Z,59.94
2018-07-08T04:53:58.696Z,59.72
2018-07-08T04:54:39.214Z,59.82
2018-07-08T04:55:19.731Z,59.91
2018-07-08T04:56:00.253Z,59.82
2018-07-08T04:56:40.778Z,59.82
2018-07-08T04:57:21.295Z,59.82
2018-07-08T04:58:01.836Z,59.82
2018-07-08T04:58:42.356Z,59.82
2018-07-08T04:59:22.872Z,60.11
2018-07-08T05:00:03.417Z,59.91
2018-07-08T05:00:43.943Z,59.98
2018-07-08T05:01:24.474Z,60.57
2018-07-08T05:02:05.018Z,60.66
2018-07-08T05:02:45.546Z,60.75
2018-07-08T05:03:26.066Z,60.66
2018-07-08T05:04:06.587Z,60.47
2018-07-08T05:04:47.119Z,60.5
2018-07-08T05:05:27.637Z,60.5
2018-07-08T05:06:08.150Z,60.59
2018-07-08T05:06:48.697Z,60.4
2018-07-08T05:07:29.212Z,60.5
2018-07-08T05:08:09.739Z,60.5
2018-07-08T05:08:50.257Z,60.47
2018-07-08T05:09:30.803Z,60.17
2018-07-08T05:10:11.325Z,60.95
2018-07-08T05:10:51.850Z,61.05
2018-07-08T05:11:32.400Z,61.24
2018-07-08T05:12:12.927Z,61.53
2018-07-08T05:12:53.447Z,61.72
2018-07-08T05:13:33.971Z,61.5
2018-07-08T05:14:14.503Z,61.69
2018-07-08T05:14:55.021Z,61.21
2018-07-08T05:15:35.548Z,61.53
2018-07-08T05:16:16.077Z,61.53
2018-07-08T05:16:56.591Z,61.15
2018-07-08T05:17:37.116Z,61.43
2018-07-08T05:18:17.680Z,61.24
2018-07-08T05:18:58.207Z,61.33
2018-07-08T05:19:38.750Z,61.53
2018-07-08T05:20:19.334Z,61.53
2018-07-08T05:20:59.793Z,61.63
2018-07-08T05:21:40.312Z,61.63
2018-07-08T05:22:20.825Z,61.72
2018-07-08T05:23:01.354Z,61.43
2018-07-08T05:23:41.864Z,60.85
2018-07-08T05:24:22.391Z,60.85
2018-07-08T05:25:02.922Z,60.57
2018-07-08T05:25:43.449Z,59.69
2018-07-08T05:26:23.973Z,59.63
2018-07-08T05:27:04.476Z,59.43
2018-07-08T05:27:44.997Z,59.43
2018-07-08T05:28:25.521Z,59.43
2018-07-08T05:29:06.043Z,59.82
2018-07-08T05:29:46.598Z,59.89
2018-07-08T05:30:27.084Z,60.27
2018-07-08T05:31:07.613Z,60.47
2018-07-08T05:31:48.122Z,60.17
2018-07-08T05:32:28.652Z,60.27
2018-07-08T05:33:09.183Z,60.85
2018-07-08T05:33:49.707Z,60.01
2018-07-08T05:34:30.225Z,59.72
2018-07-08T05:35:10.757Z,58.11
2018-07-08T05:35:51.280Z,58.3
2018-07-08T05:36:31.806Z,58.49
2018-07-08T05:37:12.333Z,59.23
2018-07-08T05:37:52.861Z,59.91
2018-07-08T05:38:33.366Z,59.59
2018-07-08T05:39:13.895Z,60.66
2018-07-08T05:39:55.299Z,60.85
2018-07-08T05:40:35.819Z,60.37
2018-07-08T05:41:16.410Z,60.75
2018-07-08T05:41:56.930Z,61.15
2018-07-08T05:42:37.447Z,61.24
2018-07-08T05:43:17.996Z,61.33
2018-07-08T05:43:58.527Z,61.43
2018-07-08T05:44:39.046Z,61.53
2018-07-08T05:45:19.566Z,61.53
2018-07-08T05:46:00.100Z,61.53
2018-07-08T05:46:40.627Z,61.5
2018-07-08T05:47:21.154Z,61.63
2018-07-08T05:48:01.685Z,61.5
2018-07-08T05:48:42.175Z,61.98
2018-07-08T05:49:22.702Z,62.18
2018-07-08T05:50:03.216Z,61.69
2018-07-08T05:50:43.838Z,61.4
2018-07-08T05:51:24.360Z,62.08
2018-07-08T05:52:04.935Z,61.6
2018-07-08T05:52:45.480Z,61.98
2018-07-08T05:53:26.004Z,62.18
2018-07-08T05:54:06.511Z,62.08
2018-07-08T05:54:47.066Z,62.08
2018-07-08T05:55:27.601Z,62.18
2018-07-08T05:56:08.137Z,61.6
2018-07-08T05:58:01.259Z,61.98
2018-07-08T05:58:41.773Z,61.4
2018-07-08T05:59:22.387Z,61.69
2018-07-08T06:00:02.834Z,61.69
2018-07-08T06:00:43.363Z,60.75
2018-07-08T06:01:23.930Z,60.27
2018-07-08T06:02:05.137Z,60.21
2018-07-08T06:02:45.686Z,59.91
2018-07-08T06:03:26.209Z,58.59
2018-07-08T06:04:06.761Z,57.94
2018-07-08T06:04:47.328Z,57.09
2018-07-08T06:05:27.840Z,56.51
2018-07-08T06:06:08.349Z,56.05
2018-07-08T06:06:48.881Z,56.05
2018-07-08T06:07:29.394Z,55.31
2018-07-08T06:08:09.924Z,55.11
2018-07-08T06:08:50.475Z,54.92
2018-07-08T06:09:30.985Z,54.92
2018-07-08T06:10:11.519Z,54.92
2018-07-08T06:10:52.653Z,54.94
2018-07-08T06:11:33.211Z,53.97
2018-07-08T06:12:13.705Z,53.97
2018-07-08T06:12:54.217Z,53.32
2018-07-08T06:13:34.744Z,52.84
2018-07-08T06:14:15.278Z,52.84
2018-07-08T06:14:55.833Z,52.55
2018-07-08T06:15:36.348Z,53.13
2018-07-08T06:16:16.916Z,53.03
2018-07-08T06:16:57.429Z,52.86
2018-07-08T06:17:37.865Z,52.35
2018-07-08T06:18:18.389Z,52.64
2018-07-08T06:18:58.917Z,52.94
2018-07-08T06:19:39.420Z,52.35
2018-07-08T06:20:19.938Z,52.57
2018-07-08T06:21:00.470Z,52.09
2018-07-08T06:21:40.983Z,51.6
2018-07-08T06:22:21.531Z,51.4
2018-07-08T06:23:02.154Z,51.7
2018-07-08T06:23:42.652Z,51.6
2018-07-08T06:24:23.262Z,51.7
2018-07-08T06:25:03.777Z,51.6
2018-07-08T06:25:44.350Z,51.31
2018-07-08T06:26:24.913Z,51.7
2018-07-08T06:27:05.428Z,51.6
2018-07-08T06:27:45.863Z,51.31
2018-07-08T06:28:26.424Z,51.33
2018-07-08T06:29:06.931Z,51.04
2018-07-08T06:29:47.472Z,50.97
2018-07-08T06:30:28.001Z,50.97
2018-07-08T06:31:08.551Z,50.97
2018-07-08T06:31:49.131Z,51.55
2018-07-08T06:32:29.584Z,51.33
2018-07-08T06:33:10.050Z,50.87
2018-07-08T06:33:50.591Z,50.87
2018-07-08T06:34:31.088Z,50.38
2018-07-08T06:35:11.586Z,50.78
2018-07-08T06:35:52.082Z,50.68
2018-07-08T06:36:32.601Z,50.48
2018-07-08T06:37:13.117Z,50.85
2018-07-08T06:37:53.665Z,51.14
2018-07-08T06:38:34.153Z,50.65
2018-07-08T06:39:14.710Z,50.65
2018-07-08T06:39:55.209Z,50.56
2018-07-08T06:40:35.703Z,51.04
2018-07-08T06:41:16.209Z,50.95
2018-07-08T06:41:56.731Z,51.07
2018-07-08T06:42:37.252Z,50.85
2018-07-08T06:43:17.767Z,50.95
2018-07-08T06:43:59.135Z,51.62
2018-07-08T06:44:39.590Z,51.14
2018-07-08T06:45:20.139Z,51.04
2018-07-08T06:46:00.693Z,51.23
2018-07-08T06:46:41.156Z,50.82
2018-07-08T06:47:21.697Z,50.92
2018-07-08T06:48:02.207Z,50.95
2018-07-08T06:48:43.336Z,50.56
2018-07-08T06:49:23.852Z,50.56
2018-07-08T06:50:04.381Z,50.26
2018-07-08T06:50:44.930Z,50.19
2018-07-08T06:51:25.452Z,50.58
2018-07-08T06:52:06.027Z,50.48
2018-07-08T06:52:46.450Z,49.99
2018-07-08T06:53:26.970Z,50.38
2018-07-08T06:54:07.505Z,50.68
2018-07-08T06:54:48.025Z,50.29
2018-07-08T06:55:28.547Z,50.58
2018-07-08T06:56:09.085Z,50.56
2018-07-08T06:56:49.608Z,50.36
2018-07-08T06:57:30.143Z,50.56
2018-07-08T06:58:10.685Z,50.09
2018-07-08T06:58:51.263Z,49.71
2018-07-08T06:59:31.760Z,49.51
2018-07-08T07:00:12.295Z,50.56
2018-07-08T07:00:52.816Z,50.58
2018-07-08T07:01:33.320Z,50.56
2018-07-08T07:02:13.824Z,51.14
2018-07-08T07:02:54.340Z,50.97
2018-07-08T07:03:34.845Z,50.56
2018-07-08T07:04:15.372Z,50.29
2018-07-08T07:04:55.897Z,50.58
2018-07-08T07:05:36.433Z,50.56
2018-07-08T07:06:16.958Z,50.75
2018-07-08T07:06:57.510Z,51.17
2018-07-08T07:07:38.197Z,50.95
2018-07-08T07:08:18.767Z,51.17
2018-07-08T07:08:59.312Z,50.87
2018-07-08T07:09:39.844Z,51.04
2018-07-08T07:10:20.387Z,51.23
2018-07-08T07:11:00.902Z,51.43
2018-07-08T07:11:41.422Z,51.45
2018-07-08T07:12:21.978Z,50.97
2018-07-08T07:13:03.212Z,50.58
2018-07-08T07:13:43.703Z,50.68
2018-07-08T07:14:24.227Z,51.04
2018-07-08T07:15:04.749Z,51.14
2018-07-08T07:15:45.282Z,51.43
2018-07-08T07:16:25.825Z,51.62
2018-07-08T07:17:06.416Z,51.33
2018-07-08T07:17:46.936Z,50.95
2018-07-08T07:18:27.458Z,50.95
2018-07-08T07:19:07.983Z,50.95
2018-07-08T07:19:48.505Z,50.97
2018-07-08T07:20:29.036Z,50.65
2018-07-08T07:21:09.567Z,49.9
2018-07-08T07:21:50.119Z,49.8
2018-07-08T07:22:30.621Z,49.71
2018-07-08T07:23:11.145Z,49.9
2018-07-08T07:23:51.666Z,49.41
2018-07-08T07:24:32.183Z,49.61
2018-07-08T07:25:12.787Z,49.9
2018-07-08T07:25:53.342Z,49.32
2018-07-08T07:26:34.277Z,49.29
2018-07-08T07:27:14.350Z,49.68
2018-07-08T07:29:32.905Z,49.22
2018-07-08T07:30:13.421Z,49.41
2018-07-08T07:30:53.900Z,49.29
2018-07-08T07:31:34.482Z,49.78
2018-07-08T07:32:15.064Z,49.71
2018-07-08T07:32:55.589Z,49.51
2018-07-08T07:33:36.106Z,49.8
2018-07-08T07:34:16.645Z,49.61
2018-07-08T07:34:57.164Z,49.41
2018-07-08T07:35:37.692Z,49.51
2018-07-08T07:36:18.218Z,48.93
2018-07-08T07:36:58.780Z,48.73
2018-07-08T07:37:39.388Z,48.73
2018-07-08T07:38:19.995Z,49.12
2018-07-08T07:39:00.435Z,49.22
2018-07-08T07:39:40.955Z,48.93
2018-07-08T07:40:21.487Z,48.73
2018-07-08T07:41:02.039Z,49.12
2018-07-08T07:41:42.454Z,49.22
2018-07-08T07:42:22.977Z,49.02
2018-07-08T07:43:03.459Z,49.34
2018-07-08T07:43:44.022Z,49.51
2018-07-08T07:44:24.579Z,49.8
2018-07-08T07:45:05.099Z,49.71
2018-07-08T07:45:45.683Z,49.41
2018-07-08T07:46:26.237Z,49.8
2018-07-08T07:47:06.811Z,49.71
2018-07-08T07:47:47.274Z,49.51
2018-07-08T07:48:27.850Z,49.12
2018-07-08T07:49:08.300Z,49.32
2018-07-08T07:49:48.844Z,49.05
2018-07-08T07:50:30.248Z,49.44
2018-07-08T07:51:10.781Z,49.24
2018-07-08T07:51:51.313Z,49.15
2018-07-08T07:52:31.741Z,48.93
2018-07-08T07:53:12.219Z,48.93
2018-07-08T07:53:52.734Z,49.12
2018-07-08T07:54:33.257Z,48.83
2018-07-08T07:55:13.747Z,48.93
2018-07-08T07:55:54.318Z,49.12
2018-07-08T07:56:34.854Z,48.73
2018-07-08T07:57:15.345Z,48.83
2018-07-08T07:57:55.890Z,48.63
2018-07-08T07:58:36.389Z,49.12
2018-07-08T07:59:16.885Z,48.75
2018-07-08T07:59:57.446Z,48.17
2018-07-08T08:00:37.944Z,48.85
2018-07-08T08:01:18.650Z,48.66
2018-07-08T08:01:59.220Z,48.27
2018-07-08T08:02:39.767Z,48.25
2018-07-08T08:03:20.248Z,48.83
2018-07-08T08:04:00.842Z,48.36
2018-07-08T08:04:41.354Z,48.27
2018-07-08T08:05:22.122Z,48.07
2018-07-08T08:06:02.451Z,48.85
2018-07-08T08:06:42.878Z,48.36
2018-07-08T08:07:23.386Z,48.07
2018-07-08T08:08:03.936Z,48.54
2018-07-08T08:08:44.430Z,48.07
2018-07-08T08:09:24.970Z,47.86
2018-07-08T08:10:05.646Z,47.98
2018-07-08T08:10:46.223Z,47.49
2018-07-08T08:11:26.627Z,47.86
2018-07-08T08:12:07.159Z,47.69
2018-07-08T08:12:47.650Z,47.78
2018-07-08T08:13:28.167Z,48.27
2018-07-08T08:14:08.708Z,48.73
2018-07-08T08:14:49.217Z,48.83
2018-07-08T08:15:29.720Z,48.93
2018-07-08T08:16:10.267Z,48.93
2018-07-08T08:16:50.752Z,49.22
2018-07-08T08:17:31.295Z,49.32
2018-07-08T08:18:11.827Z,49.61
2018-07-08T08:18:52.442Z,49.71
2018-07-08T08:19:33.002Z,49.54
2018-07-08T08:20:13.523Z,49.15
2018-07-08T08:20:54.024Z,49.24
2018-07-08T08:21:34.508Z,49.15
2018-07-08T08:22:15.066Z,48.66
2018-07-08T08:22:55.545Z,47.88
2018-07-08T08:23:36.073Z,48.85
2018-07-08T08:24:16.611Z,48.46
2018-07-08T08:24:57.093Z,48.66
2018-07-08T08:25:37.576Z,48.63
2018-07-08T08:26:18.191Z,48.93
2018-07-08T08:26:58.637Z,49.12
2018-07-08T08:27:39.226Z,49.1
2018-07-08T08:28:19.741Z,48.9
2018-07-08T08:29:00.243Z,48.9
2018-07-08T08:29:40.757Z,48.51
2018-07-08T08:30:21.216Z,49.22
2018-07-08T08:31:01.776Z,49.9
2018-07-08T08:31:42.299Z,49.78
2018-07-08T08:32:22.753Z,49.49
2018-07-08T08:33:03.275Z,49.49
2018-07-08T08:33:43.775Z,49.58
2018-07-08T08:34:24.333Z,49.39
2018-07-08T08:35:05.769Z,49.58
2018-07-08T08:35:46.778Z,50.26
2018-07-08T08:36:27.124Z,50.75
2018-07-08T08:37:07.638Z,50.85
2018-07-08T08:37:48.142Z,50.95
2018-07-08T08:38:29.247Z,51.4
2018-07-08T08:39:09.750Z,51.23
2018-07-08T08:39:50.263Z,51.62
2018-07-08T08:40:30.725Z,51.82
2018-07-08T08:41:11.241Z,51.6
2018-07-08T08:41:51.782Z,51.4
2018-07-08T08:42:32.307Z,51.01
2018-07-08T08:43:12.830Z,51.5
2018-07-08T08:43:53.324Z,50.92
2018-07-08T08:44:33.824Z,50.75
2018-07-08T08:45:14.322Z,50.82
2018-07-08T08:45:54.870Z,50.63
2018-07-08T08:46:35.391Z,51.01